sensor_id;sensor_type;location;lat;lon;timestamp;P1;durP1;ratioP1;P2;durP2;ratioP2
26191;SDS011;13935;55.672;37.764;2022-09-29T00:01:12;9.23;;;6.15;;
26191;SDS011;13935;55.672;37.764;2022-09-29T00:02:15;9.50;;;6.38;;
26191;SDS011;13935;55.672;37.764;2022-09-29T00:03:19;9.05;;;6.28;;
26191;SDS011;13935;55.672;37.764;2022-09-29T00:04:22;10.98;;;5.90;;
26191;SDS011;13935;55.672;37.764;2022-09-29T00:05:25;9.35;;;5.75;;
26191;SDS011;13935;55.672;37.764;2022-09-29T00:06:30;9.82;;;5.85;;
26191;SDS011;13935;55.672;37.764;2022-09-29T00:07:32;8.50;;;5.97;;
26191;SDS011;13935;55.672;37.764;2022-09-29T00:08:35;11.30;;;6.00;;
26191;SDS011;13935;55.672;37.764;2022-09-29T00:09:39;11.35;;;6.18;;
26191;SDS011;13935;55.672;37.764;2022-09-29T00:10:44;9.23;;;5.90;;
26191;SDS011;13935;55.672;37.764;2022-09-29T00:11:47;9.88;;;5.78;;
26191;SDS011;13935;55.672;37.764;2022-09-29T00:12:50;10.68;;;6.18;;
26191;SDS011;13935;55.672;37.764;2022-09-29T00:13:53;8.32;;;6.03;;
26191;SDS011;13935;55.672;37.764;2022-09-29T00:14:55;9.95;;;5.78;;
26191;SDS011;13935;55.672;37.764;2022-09-29T00:15:58;8.30;;;6.00;;
26191;SDS011;13935;55.672;37.764;2022-09-29T00:17:03;9.57;;;5.90;;
26191;SDS011;13935;55.672;37.764;2022-09-29T00:18:06;8.27;;;5.60;;
26191;SDS011;13935;55.672;37.764;2022-09-29T00:19:15;9.10;;;5.88;;
26191;SDS011;13935;55.672;37.764;2022-09-29T00:20:18;8.45;;;6.20;;
26191;SDS011;13935;55.672;37.764;2022-09-29T00:21:20;10.63;;;6.22;;
26191;SDS011;13935;55.672;37.764;2022-09-29T00:22:22;8.60;;;6.30;;
26191;SDS011;13935;55.672;37.764;2022-09-29T00:23:27;10.40;;;6.30;;
26191;SDS011;13935;55.672;37.764;2022-09-29T00:24:31;9.82;;;5.70;;
26191;SDS011;13935;55.672;37.764;2022-09-29T00:25:36;9.90;;;6.22;;
26191;SDS011;13935;55.672;37.764;2022-09-29T00:26:39;10.27;;;6.15;;
26191;SDS011;13935;55.672;37.764;2022-09-29T00:27:43;10.70;;;5.93;;
26191;SDS011;13935;55.672;37.764;2022-09-29T00:28:48;8.45;;;5.93;;
26191;SDS011;13935;55.672;37.764;2022-09-29T00:29:50;9.27;;;5.82;;
26191;SDS011;13935;55.672;37.764;2022-09-29T00:30:54;9.77;;;6.47;;
26191;SDS011;13935;55.672;37.764;2022-09-29T00:31:56;10.77;;;5.97;;
26191;SDS011;13935;55.672;37.764;2022-09-29T00:32:58;8.60;;;5.97;;
26191;SDS011;13935;55.672;37.764;2022-09-29T00:34:00;8.48;;;5.43;;
26191;SDS011;13935;55.672;37.764;2022-09-29T00:35:02;8.55;;;5.82;;
26191;SDS011;13935;55.672;37.764;2022-09-29T00:36:08;7.93;;;5.55;;
26191;SDS011;13935;55.672;37.764;2022-09-29T00:37:17;8.38;;;5.95;;
26191;SDS011;13935;55.672;37.764;2022-09-29T00:38:20;8.95;;;5.30;;
26191;SDS011;13935;55.672;37.764;2022-09-29T00:39:23;8.40;;;6.03;;
26191;SDS011;13935;55.672;37.764;2022-09-29T00:40:27;10.15;;;5.97;;
26191;SDS011;13935;55.672;37.764;2022-09-29T00:41:30;8.63;;;5.68;;
26191;SDS011;13935;55.672;37.764;2022-09-29T00:42:39;8.25;;;5.70;;
26191;SDS011;13935;55.672;37.764;2022-09-29T00:46:00;8.00;;;5.50;;
26191;SDS011;13935;55.672;37.764;2022-09-29T00:47:03;7.22;;;5.38;;
26191;SDS011;13935;55.672;37.764;2022-09-29T00:48:11;7.93;;;5.20;;
26191;SDS011;13935;55.672;37.764;2022-09-29T00:51:50;8.48;;;5.10;;
26191;SDS011;13935;55.672;37.764;2022-09-29T00:53:02;7.75;;;5.13;;
26191;SDS011;13935;55.672;37.764;2022-09-29T00:54:17;7.40;;;5.10;;
26191;SDS011;13935;55.672;37.764;2022-09-29T00:55:20;8.20;;;5.10;;
26191;SDS011;13935;55.672;37.764;2022-09-29T00:56:26;8.68;;;5.10;;
26191;SDS011;13935;55.672;37.764;2022-09-29T00:57:33;7.45;;;5.10;;
26191;SDS011;13935;55.672;37.764;2022-09-29T01:00:07;7.95;;;4.80;;
26191;SDS011;13935;55.672;37.764;2022-09-29T01:01:12;8.48;;;5.07;;
26191;SDS011;13935;55.672;37.764;2022-09-29T01:02:17;9.02;;;5.15;;
26191;SDS011;13935;55.672;37.764;2022-09-29T01:03:22;8.57;;;5.07;;
26191;SDS011;13935;55.672;37.764;2022-09-29T01:04:31;7.72;;;5.03;;
26191;SDS011;13935;55.672;37.764;2022-09-29T01:05:35;9.52;;;4.80;;
26191;SDS011;13935;55.672;37.764;2022-09-29T01:06:45;8.25;;;5.30;;
26191;SDS011;13935;55.672;37.764;2022-09-29T01:07:54;7.28;;;4.90;;
26191;SDS011;13935;55.672;37.764;2022-09-29T01:09:08;7.97;;;4.72;;
26191;SDS011;13935;55.672;37.764;2022-09-29T01:10:19;8.70;;;4.93;;
26191;SDS011;13935;55.672;37.764;2022-09-29T01:11:21;7.70;;;5.05;;
26191;SDS011;13935;55.672;37.764;2022-09-29T01:12:23;9.20;;;5.55;;
26191;SDS011;13935;55.672;37.764;2022-09-29T01:13:27;9.07;;;5.30;;
26191;SDS011;13935;55.672;37.764;2022-09-29T01:14:30;10.05;;;5.22;;
26191;SDS011;13935;55.672;37.764;2022-09-29T01:15:34;8.82;;;5.30;;
26191;SDS011;13935;55.672;37.764;2022-09-29T01:16:37;7.25;;;4.93;;
26191;SDS011;13935;55.672;37.764;2022-09-29T01:17:40;9.65;;;4.88;;
26191;SDS011;13935;55.672;37.764;2022-09-29T01:18:44;8.63;;;5.22;;
26191;SDS011;13935;55.672;37.764;2022-09-29T01:20:06;11.18;;;4.90;;
26191;SDS011;13935;55.672;37.764;2022-09-29T01:22:46;7.07;;;4.72;;
26191;SDS011;13935;55.672;37.764;2022-09-29T01:24:30;8.98;;;4.63;;
26191;SDS011;13935;55.672;37.764;2022-09-29T01:33:28;8.18;;;4.82;;
26191;SDS011;13935;55.672;37.764;2022-09-29T01:34:47;7.95;;;4.43;;
26191;SDS011;13935;55.672;37.764;2022-09-29T01:35:59;10.68;;;5.00;;
26191;SDS011;13935;55.672;37.764;2022-09-29T01:37:11;9.48;;;5.30;;
26191;SDS011;13935;55.672;37.764;2022-09-29T01:39:47;7.93;;;4.53;;
26191;SDS011;13935;55.672;37.764;2022-09-29T01:43:23;8.23;;;4.82;;
26191;SDS011;13935;55.672;37.764;2022-09-29T01:44:49;9.55;;;5.65;;
26191;SDS011;13935;55.672;37.764;2022-09-29T01:46:26;10.20;;;5.72;;
26191;SDS011;13935;55.672;37.764;2022-09-29T01:47:36;7.50;;;5.30;;
26191;SDS011;13935;55.672;37.764;2022-09-29T01:48:44;7.07;;;4.90;;
26191;SDS011;13935;55.672;37.764;2022-09-29T01:49:57;8.48;;;5.00;;
26191;SDS011;13935;55.672;37.764;2022-09-29T01:51:18;9.77;;;5.28;;
26191;SDS011;13935;55.672;37.764;2022-09-29T01:52:25;8.45;;;5.40;;
26191;SDS011;13935;55.672;37.764;2022-09-29T01:53:35;9.63;;;5.07;;
26191;SDS011;13935;55.672;37.764;2022-09-29T01:54:45;8.38;;;5.15;;
26191;SDS011;13935;55.672;37.764;2022-09-29T01:55:53;8.27;;;5.10;;
26191;SDS011;13935;55.672;37.764;2022-09-29T01:57:06;8.07;;;5.38;;
26191;SDS011;13935;55.672;37.764;2022-09-29T01:58:15;7.80;;;5.57;;
26191;SDS011;13935;55.672;37.764;2022-09-29T01:59:25;8.65;;;5.05;;
26191;SDS011;13935;55.672;37.764;2022-09-29T02:00:36;8.23;;;5.25;;
26191;SDS011;13935;55.672;37.764;2022-09-29T02:01:43;8.13;;;5.47;;
26191;SDS011;13935;55.672;37.764;2022-09-29T02:04:24;7.50;;;4.95;;
26191;SDS011;13935;55.672;37.764;2022-09-29T02:06:47;7.00;;;5.22;;
26191;SDS011;13935;55.672;37.764;2022-09-29T02:08:05;9.90;;;5.53;;
26191;SDS011;13935;55.672;37.764;2022-09-29T02:09:13;8.00;;;5.38;;
26191;SDS011;13935;55.672;37.764;2022-09-29T02:10:32;9.90;;;5.70;;
26191;SDS011;13935;55.672;37.764;2022-09-29T02:11:41;7.65;;;5.00;;
26191;SDS011;13935;55.672;37.764;2022-09-29T02:12:43;6.68;;;4.75;;
26191;SDS011;13935;55.672;37.764;2022-09-29T02:13:58;9.30;;;5.25;;
26191;SDS011;13935;55.672;37.764;2022-09-29T02:15:10;10.02;;;5.47;;
26191;SDS011;13935;55.672;37.764;2022-09-29T02:16:19;7.68;;;4.90;;
26191;SDS011;13935;55.672;37.764;2022-09-29T02:17:46;8.15;;;5.57;;
26191;SDS011;13935;55.672;37.764;2022-09-29T02:18:52;8.45;;;5.78;;
26191;SDS011;13935;55.672;37.764;2022-09-29T02:19:59;10.03;;;5.67;;
26191;SDS011;13935;55.672;37.764;2022-09-29T02:21:01;7.85;;;5.30;;
26191;SDS011;13935;55.672;37.764;2022-09-29T02:22:03;8.48;;;5.65;;
26191;SDS011;13935;55.672;37.764;2022-09-29T02:23:06;8.50;;;5.88;;
26191;SDS011;13935;55.672;37.764;2022-09-29T02:24:10;8.23;;;5.97;;
26191;SDS011;13935;55.672;37.764;2022-09-29T02:25:13;9.57;;;6.00;;
26191;SDS011;13935;55.672;37.764;2022-09-29T02:26:19;10.50;;;6.10;;
26191;SDS011;13935;55.672;37.764;2022-09-29T02:27:22;10.15;;;6.22;;
26191;SDS011;13935;55.672;37.764;2022-09-29T02:28:28;9.02;;;6.28;;
26191;SDS011;13935;55.672;37.764;2022-09-29T02:29:31;11.43;;;5.68;;
26191;SDS011;13935;55.672;37.764;2022-09-29T02:30:34;8.27;;;5.97;;
26191;SDS011;13935;55.672;37.764;2022-09-29T02:31:37;9.02;;;6.00;;
26191;SDS011;13935;55.672;37.764;2022-09-29T02:32:40;8.23;;;5.75;;
26191;SDS011;13935;55.672;37.764;2022-09-29T02:33:44;7.70;;;5.70;;
26191;SDS011;13935;55.672;37.764;2022-09-29T02:34:51;8.55;;;5.85;;
26191;SDS011;13935;55.672;37.764;2022-09-29T02:38:43;9.18;;;6.63;;
26191;SDS011;13935;55.672;37.764;2022-09-29T02:43:15;10.60;;;6.78;;
26191;SDS011;13935;55.672;37.764;2022-09-29T02:44:47;10.40;;;6.28;;
26191;SDS011;13935;55.672;37.764;2022-09-29T02:46:22;9.85;;;6.32;;
26191;SDS011;13935;55.672;37.764;2022-09-29T02:50:35;11.25;;;6.43;;
26191;SDS011;13935;55.672;37.764;2022-09-29T02:51:54;11.48;;;6.40;;
26191;SDS011;13935;55.672;37.764;2022-09-29T02:56:11;12.25;;;6.55;;
26191;SDS011;13935;55.672;37.764;2022-09-29T03:00:05;10.68;;;6.95;;
26191;SDS011;13935;55.672;37.764;2022-09-29T03:01:12;11.80;;;7.78;;
26191;SDS011;13935;55.672;37.764;2022-09-29T03:02:24;14.43;;;7.93;;
26191;SDS011;13935;55.672;37.764;2022-09-29T03:03:31;11.52;;;7.25;;
26191;SDS011;13935;55.672;37.764;2022-09-29T03:04:36;11.30;;;7.13;;
26191;SDS011;13935;55.672;37.764;2022-09-29T03:05:38;10.45;;;6.97;;
26191;SDS011;13935;55.672;37.764;2022-09-29T03:06:40;10.25;;;6.60;;
26191;SDS011;13935;55.672;37.764;2022-09-29T03:07:42;14.85;;;7.18;;
26191;SDS011;13935;55.672;37.764;2022-09-29T03:08:44;10.15;;;6.82;;
26191;SDS011;13935;55.672;37.764;2022-09-29T03:09:47;10.48;;;7.03;;
26191;SDS011;13935;55.672;37.764;2022-09-29T03:10:49;11.00;;;7.15;;
26191;SDS011;13935;55.672;37.764;2022-09-29T03:11:51;11.63;;;6.82;;
26191;SDS011;13935;55.672;37.764;2022-09-29T03:12:53;12.43;;;7.70;;
26191;SDS011;13935;55.672;37.764;2022-09-29T03:13:57;11.57;;;7.22;;
26191;SDS011;13935;55.672;37.764;2022-09-29T03:14:59;12.00;;;7.22;;
26191;SDS011;13935;55.672;37.764;2022-09-29T03:16:02;11.02;;;7.47;;
26191;SDS011;13935;55.672;37.764;2022-09-29T03:17:04;11.45;;;7.28;;
26191;SDS011;13935;55.672;37.764;2022-09-29T03:18:06;11.48;;;7.25;;
26191;SDS011;13935;55.672;37.764;2022-09-29T03:19:10;10.40;;;7.50;;
26191;SDS011;13935;55.672;37.764;2022-09-29T03:20:13;11.60;;;8.30;;
26191;SDS011;13935;55.672;37.764;2022-09-29T03:21:18;11.30;;;7.00;;
26191;SDS011;13935;55.672;37.764;2022-09-29T03:22:21;11.18;;;7.57;;
26191;SDS011;13935;55.672;37.764;2022-09-29T03:23:23;12.07;;;7.22;;
26191;SDS011;13935;55.672;37.764;2022-09-29T03:24:26;14.07;;;7.80;;
26191;SDS011;13935;55.672;37.764;2022-09-29T03:25:30;10.50;;;7.70;;
26191;SDS011;13935;55.672;37.764;2022-09-29T03:26:33;12.27;;;7.90;;
26191;SDS011;13935;55.672;37.764;2022-09-29T03:27:36;11.40;;;8.00;;
26191;SDS011;13935;55.672;37.764;2022-09-29T03:28:39;11.60;;;7.68;;
26191;SDS011;13935;55.672;37.764;2022-09-29T03:29:41;10.50;;;7.53;;
26191;SDS011;13935;55.672;37.764;2022-09-29T03:30:47;11.93;;;7.85;;
26191;SDS011;13935;55.672;37.764;2022-09-29T03:31:50;12.52;;;7.47;;
26191;SDS011;13935;55.672;37.764;2022-09-29T03:32:52;11.15;;;7.03;;
26191;SDS011;13935;55.672;37.764;2022-09-29T03:33:54;13.93;;;7.93;;
26191;SDS011;13935;55.672;37.764;2022-09-29T03:34:56;11.70;;;7.53;;
26191;SDS011;13935;55.672;37.764;2022-09-29T03:35:59;10.93;;;7.68;;
26191;SDS011;13935;55.672;37.764;2022-09-29T03:37:03;13.35;;;8.40;;
26191;SDS011;13935;55.672;37.764;2022-09-29T03:38:08;12.60;;;7.55;;
26191;SDS011;13935;55.672;37.764;2022-09-29T03:39:11;13.65;;;7.90;;
26191;SDS011;13935;55.672;37.764;2022-09-29T03:40:14;10.43;;;7.63;;
26191;SDS011;13935;55.672;37.764;2022-09-29T03:41:18;12.57;;;7.85;;
26191;SDS011;13935;55.672;37.764;2022-09-29T03:42:20;10.90;;;7.97;;
26191;SDS011;13935;55.672;37.764;2022-09-29T03:43:28;10.77;;;8.02;;
26191;SDS011;13935;55.672;37.764;2022-09-29T03:44:31;12.93;;;7.95;;
26191;SDS011;13935;55.672;37.764;2022-09-29T03:45:36;13.07;;;8.52;;
26191;SDS011;13935;55.672;37.764;2022-09-29T03:46:51;14.13;;;8.40;;
26191;SDS011;13935;55.672;37.764;2022-09-29T03:47:56;14.75;;;10.73;;
26191;SDS011;13935;55.672;37.764;2022-09-29T03:48:58;14.45;;;9.52;;
26191;SDS011;13935;55.672;37.764;2022-09-29T03:50:00;15.50;;;8.82;;
26191;SDS011;13935;55.672;37.764;2022-09-29T03:51:04;15.90;;;8.95;;
26191;SDS011;13935;55.672;37.764;2022-09-29T03:52:07;11.68;;;8.32;;
26191;SDS011;13935;55.672;37.764;2022-09-29T03:53:09;11.85;;;8.43;;
26191;SDS011;13935;55.672;37.764;2022-09-29T03:54:11;12.65;;;8.50;;
26191;SDS011;13935;55.672;37.764;2022-09-29T03:55:13;13.27;;;8.38;;
26191;SDS011;13935;55.672;37.764;2022-09-29T03:56:15;16.52;;;9.23;;
26191;SDS011;13935;55.672;37.764;2022-09-29T03:57:17;14.15;;;9.20;;
26191;SDS011;13935;55.672;37.764;2022-09-29T03:58:19;13.13;;;8.65;;
26191;SDS011;13935;55.672;37.764;2022-09-29T03:59:21;14.68;;;9.07;;
26191;SDS011;13935;55.672;37.764;2022-09-29T04:00:25;13.15;;;8.65;;
26191;SDS011;13935;55.672;37.764;2022-09-29T04:01:27;13.05;;;8.48;;
26191;SDS011;13935;55.672;37.764;2022-09-29T04:02:31;13.30;;;8.77;;
26191;SDS011;13935;55.672;37.764;2022-09-29T04:03:35;11.38;;;7.90;;
26191;SDS011;13935;55.672;37.764;2022-09-29T04:04:37;14.25;;;8.27;;
26191;SDS011;13935;55.672;37.764;2022-09-29T04:05:39;13.90;;;8.75;;
26191;SDS011;13935;55.672;37.764;2022-09-29T04:06:42;10.98;;;8.50;;
26191;SDS011;13935;55.672;37.764;2022-09-29T04:07:45;15.95;;;8.98;;
26191;SDS011;13935;55.672;37.764;2022-09-29T04:08:47;15.10;;;9.35;;
26191;SDS011;13935;55.672;37.764;2022-09-29T04:09:52;15.13;;;8.50;;
26191;SDS011;13935;55.672;37.764;2022-09-29T04:10:57;16.35;;;9.55;;
26191;SDS011;13935;55.672;37.764;2022-09-29T04:12:01;16.67;;;8.90;;
26191;SDS011;13935;55.672;37.764;2022-09-29T04:13:03;14.55;;;8.98;;
26191;SDS011;13935;55.672;37.764;2022-09-29T04:14:06;15.23;;;9.20;;
26191;SDS011;13935;55.672;37.764;2022-09-29T04:15:09;14.40;;;9.20;;
26191;SDS011;13935;55.672;37.764;2022-09-29T04:16:13;15.38;;;10.00;;
26191;SDS011;13935;55.672;37.764;2022-09-29T04:17:16;13.02;;;9.73;;
26191;SDS011;13935;55.672;37.764;2022-09-29T04:18:18;14.73;;;10.07;;
26191;SDS011;13935;55.672;37.764;2022-09-29T04:19:27;16.40;;;10.70;;
26191;SDS011;13935;55.672;37.764;2022-09-29T04:20:30;15.85;;;10.38;;
26191;SDS011;13935;55.672;37.764;2022-09-29T04:21:40;14.48;;;10.07;;
26191;SDS011;13935;55.672;37.764;2022-09-29T04:22:43;12.38;;;8.30;;
26191;SDS011;13935;55.672;37.764;2022-09-29T04:23:45;12.70;;;9.18;;
26191;SDS011;13935;55.672;37.764;2022-09-29T04:24:49;11.80;;;8.73;;
26191;SDS011;13935;55.672;37.764;2022-09-29T04:25:53;11.75;;;8.75;;
26191;SDS011;13935;55.672;37.764;2022-09-29T04:26:55;13.60;;;8.95;;
26191;SDS011;13935;55.672;37.764;2022-09-29T04:27:57;13.82;;;8.70;;
26191;SDS011;13935;55.672;37.764;2022-09-29T04:29:02;11.38;;;8.38;;
26191;SDS011;13935;55.672;37.764;2022-09-29T04:30:07;12.25;;;8.70;;
26191;SDS011;13935;55.672;37.764;2022-09-29T04:31:15;13.75;;;8.43;;
26191;SDS011;13935;55.672;37.764;2022-09-29T04:32:17;12.82;;;8.98;;
26191;SDS011;13935;55.672;37.764;2022-09-29T04:33:21;12.65;;;8.27;;
26191;SDS011;13935;55.672;37.764;2022-09-29T04:34:24;13.15;;;8.02;;
26191;SDS011;13935;55.672;37.764;2022-09-29T04:35:26;13.23;;;8.77;;
26191;SDS011;13935;55.672;37.764;2022-09-29T04:36:35;11.63;;;8.55;;
26191;SDS011;13935;55.672;37.764;2022-09-29T04:37:38;13.38;;;8.52;;
26191;SDS011;13935;55.672;37.764;2022-09-29T04:38:41;13.65;;;9.07;;
26191;SDS011;13935;55.672;37.764;2022-09-29T04:39:44;14.00;;;9.57;;
26191;SDS011;13935;55.672;37.764;2022-09-29T04:40:47;16.45;;;10.48;;
26191;SDS011;13935;55.672;37.764;2022-09-29T04:41:50;43.22;;;27.33;;
26191;SDS011;13935;55.672;37.764;2022-09-29T04:42:52;12.82;;;9.40;;
26191;SDS011;13935;55.672;37.764;2022-09-29T04:43:54;13.20;;;8.70;;
26191;SDS011;13935;55.672;37.764;2022-09-29T04:44:56;15.75;;;8.82;;
26191;SDS011;13935;55.672;37.764;2022-09-29T04:46:02;11.07;;;7.95;;
26191;SDS011;13935;55.672;37.764;2022-09-29T04:47:05;10.88;;;7.93;;
26191;SDS011;13935;55.672;37.764;2022-09-29T04:48:08;15.40;;;7.72;;
26191;SDS011;13935;55.672;37.764;2022-09-29T04:49:12;12.70;;;7.80;;
26191;SDS011;13935;55.672;37.764;2022-09-29T04:50:14;11.57;;;7.85;;
26191;SDS011;13935;55.672;37.764;2022-09-29T04:51:16;10.77;;;8.05;;
26191;SDS011;13935;55.672;37.764;2022-09-29T04:52:18;10.10;;;7.65;;
26191;SDS011;13935;55.672;37.764;2022-09-29T04:53:20;12.60;;;6.65;;
26191;SDS011;13935;55.672;37.764;2022-09-29T04:54:22;9.18;;;7.00;;
26191;SDS011;13935;55.672;37.764;2022-09-29T04:55:24;10.63;;;7.15;;
26191;SDS011;13935;55.672;37.764;2022-09-29T04:56:28;10.02;;;7.00;;
26191;SDS011;13935;55.672;37.764;2022-09-29T04:57:32;9.32;;;6.90;;
26191;SDS011;13935;55.672;37.764;2022-09-29T04:58:35;11.10;;;6.70;;
26191;SDS011;13935;55.672;37.764;2022-09-29T04:59:41;11.02;;;7.55;;
26191;SDS011;13935;55.672;37.764;2022-09-29T05:00:43;10.80;;;7.97;;
26191;SDS011;13935;55.672;37.764;2022-09-29T05:01:45;10.60;;;7.57;;
26191;SDS011;13935;55.672;37.764;2022-09-29T05:02:47;15.10;;;8.43;;
26191;SDS011;13935;55.672;37.764;2022-09-29T05:03:50;10.05;;;7.32;;
26191;SDS011;13935;55.672;37.764;2022-09-29T05:04:52;11.43;;;8.18;;
26191;SDS011;13935;55.672;37.764;2022-09-29T05:05:55;11.50;;;8.13;;
26191;SDS011;13935;55.672;37.764;2022-09-29T05:06:58;12.35;;;8.13;;
26191;SDS011;13935;55.672;37.764;2022-09-29T05:08:02;10.40;;;8.20;;
26191;SDS011;13935;55.672;37.764;2022-09-29T05:09:05;11.50;;;7.70;;
26191;SDS011;13935;55.672;37.764;2022-09-29T05:10:08;16.02;;;8.57;;
26191;SDS011;13935;55.672;37.764;2022-09-29T05:11:10;11.93;;;8.38;;
26191;SDS011;13935;55.672;37.764;2022-09-29T05:12:15;11.95;;;8.05;;
26191;SDS011;13935;55.672;37.764;2022-09-29T05:13:17;12.63;;;8.77;;
26191;SDS011;13935;55.672;37.764;2022-09-29T05:14:19;11.50;;;8.38;;
26191;SDS011;13935;55.672;37.764;2022-09-29T05:15:23;13.10;;;8.93;;
26191;SDS011;13935;55.672;37.764;2022-09-29T05:16:26;14.45;;;9.52;;
26191;SDS011;13935;55.672;37.764;2022-09-29T05:17:28;13.02;;;9.70;;
26191;SDS011;13935;55.672;37.764;2022-09-29T05:18:32;12.43;;;8.95;;
26191;SDS011;13935;55.672;37.764;2022-09-29T05:19:34;12.15;;;8.77;;
26191;SDS011;13935;55.672;37.764;2022-09-29T05:20:37;12.93;;;8.80;;
26191;SDS011;13935;55.672;37.764;2022-09-29T05:21:55;11.00;;;8.83;;
26191;SDS011;13935;55.672;37.764;2022-09-29T05:22:57;14.50;;;9.73;;
26191;SDS011;13935;55.672;37.764;2022-09-29T05:24:00;12.38;;;9.25;;
26191;SDS011;13935;55.672;37.764;2022-09-29T05:25:02;15.77;;;9.27;;
26191;SDS011;13935;55.672;37.764;2022-09-29T05:26:05;32.88;;;21.90;;
26191;SDS011;13935;55.672;37.764;2022-09-29T05:27:09;35.95;;;23.35;;
26191;SDS011;13935;55.672;37.764;2022-09-29T05:28:12;15.27;;;9.10;;
26191;SDS011;13935;55.672;37.764;2022-09-29T05:29:19;15.15;;;9.25;;
26191;SDS011;13935;55.672;37.764;2022-09-29T05:30:23;11.90;;;8.82;;
26191;SDS011;13935;55.672;37.764;2022-09-29T05:31:26;14.35;;;9.70;;
26191;SDS011;13935;55.672;37.764;2022-09-29T05:32:28;14.80;;;9.65;;
26191;SDS011;13935;55.672;37.764;2022-09-29T05:33:31;17.00;;;9.55;;
26191;SDS011;13935;55.672;37.764;2022-09-29T05:34:34;14.27;;;9.05;;
26191;SDS011;13935;55.672;37.764;2022-09-29T05:35:36;17.23;;;9.85;;
26191;SDS011;13935;55.672;37.764;2022-09-29T05:36:38;19.65;;;10.20;;
26191;SDS011;13935;55.672;37.764;2022-09-29T05:37:41;14.82;;;10.25;;
26191;SDS011;13935;55.672;37.764;2022-09-29T05:38:43;17.63;;;9.63;;
26191;SDS011;13935;55.672;37.764;2022-09-29T05:39:45;15.93;;;9.70;;
26191;SDS011;13935;55.672;37.764;2022-09-29T05:40:49;20.10;;;10.32;;
26191;SDS011;13935;55.672;37.764;2022-09-29T05:41:51;16.05;;;10.20;;
26191;SDS011;13935;55.672;37.764;2022-09-29T05:43:00;16.73;;;10.40;;
26191;SDS011;13935;55.672;37.764;2022-09-29T05:44:03;19.63;;;10.77;;
26191;SDS011;13935;55.672;37.764;2022-09-29T05:45:06;17.55;;;10.45;;
26191;SDS011;13935;55.672;37.764;2022-09-29T05:46:11;18.55;;;10.27;;
26191;SDS011;13935;55.672;37.764;2022-09-29T05:47:13;16.98;;;9.52;;
26191;SDS011;13935;55.672;37.764;2022-09-29T05:48:17;16.95;;;10.45;;
26191;SDS011;13935;55.672;37.764;2022-09-29T05:49:19;16.65;;;10.68;;
26191;SDS011;13935;55.672;37.764;2022-09-29T05:50:23;17.63;;;10.50;;
26191;SDS011;13935;55.672;37.764;2022-09-29T05:51:27;18.50;;;10.55;;
26191;SDS011;13935;55.672;37.764;2022-09-29T05:52:30;19.52;;;10.77;;
26191;SDS011;13935;55.672;37.764;2022-09-29T05:53:32;23.50;;;11.38;;
26191;SDS011;13935;55.672;37.764;2022-09-29T05:54:35;18.80;;;10.95;;
26191;SDS011;13935;55.672;37.764;2022-09-29T05:55:40;21.05;;;11.95;;
26191;SDS011;13935;55.672;37.764;2022-09-29T05:56:43;18.38;;;11.48;;
26191;SDS011;13935;55.672;37.764;2022-09-29T05:57:46;20.23;;;11.43;;
26191;SDS011;13935;55.672;37.764;2022-09-29T05:58:57;20.67;;;11.15;;
26191;SDS011;13935;55.672;37.764;2022-09-29T06:00:02;18.80;;;11.82;;
26191;SDS011;13935;55.672;37.764;2022-09-29T06:01:21;20.75;;;12.15;;
26191;SDS011;13935;55.672;37.764;2022-09-29T06:02:26;20.13;;;11.68;;
26191;SDS011;13935;55.672;37.764;2022-09-29T06:03:31;22.30;;;11.57;;
26191;SDS011;13935;55.672;37.764;2022-09-29T06:04:34;19.05;;;11.50;;
26191;SDS011;13935;55.672;37.764;2022-09-29T06:05:41;20.63;;;12.32;;
26191;SDS011;13935;55.672;37.764;2022-09-29T06:06:45;22.23;;;12.77;;
26191;SDS011;13935;55.672;37.764;2022-09-29T06:07:48;22.42;;;12.68;;
26191;SDS011;13935;55.672;37.764;2022-09-29T06:08:50;22.80;;;11.82;;
26191;SDS011;13935;55.672;37.764;2022-09-29T06:09:53;21.92;;;11.82;;
26191;SDS011;13935;55.672;37.764;2022-09-29T06:11:01;21.15;;;11.98;;
26191;SDS011;13935;55.672;37.764;2022-09-29T06:12:05;24.60;;;12.00;;
26191;SDS011;13935;55.672;37.764;2022-09-29T06:13:08;19.10;;;12.00;;
26191;SDS011;13935;55.672;37.764;2022-09-29T06:14:10;22.98;;;12.40;;
26191;SDS011;13935;55.672;37.764;2022-09-29T06:15:14;21.20;;;11.75;;
26191;SDS011;13935;55.672;37.764;2022-09-29T06:16:17;24.00;;;12.30;;
26191;SDS011;13935;55.672;37.764;2022-09-29T06:17:21;26.15;;;13.00;;
26191;SDS011;13935;55.672;37.764;2022-09-29T06:18:24;27.88;;;13.52;;
26191;SDS011;13935;55.672;37.764;2022-09-29T06:19:34;27.67;;;13.35;;
26191;SDS011;13935;55.672;37.764;2022-09-29T06:21:09;22.65;;;12.40;;
26191;SDS011;13935;55.672;37.764;2022-09-29T06:22:16;23.17;;;13.13;;
26191;SDS011;13935;55.672;37.764;2022-09-29T06:23:20;25.35;;;13.90;;
26191;SDS011;13935;55.672;37.764;2022-09-29T06:24:22;37.67;;;20.55;;
26191;SDS011;13935;55.672;37.764;2022-09-29T06:25:25;22.55;;;13.90;;
26191;SDS011;13935;55.672;37.764;2022-09-29T06:26:28;24.23;;;12.95;;
26191;SDS011;13935;55.672;37.764;2022-09-29T06:27:30;21.67;;;13.32;;
26191;SDS011;13935;55.672;37.764;2022-09-29T06:28:33;19.80;;;12.13;;
26191;SDS011;13935;55.672;37.764;2022-09-29T06:29:36;20.27;;;13.25;;
26191;SDS011;13935;55.672;37.764;2022-09-29T06:30:39;22.45;;;13.15;;
26191;SDS011;13935;55.672;37.764;2022-09-29T06:31:42;22.70;;;13.77;;
26191;SDS011;13935;55.672;37.764;2022-09-29T06:32:45;24.05;;;14.20;;
26191;SDS011;13935;55.672;37.764;2022-09-29T06:33:48;23.55;;;13.60;;
26191;SDS011;13935;55.672;37.764;2022-09-29T06:34:50;27.52;;;14.73;;
26191;SDS011;13935;55.672;37.764;2022-09-29T06:36:18;23.58;;;12.98;;
26191;SDS011;13935;55.672;37.764;2022-09-29T06:37:42;22.45;;;13.18;;
26191;SDS011;13935;55.672;37.764;2022-09-29T06:38:49;27.85;;;14.60;;
26191;SDS011;13935;55.672;37.764;2022-09-29T06:39:51;25.65;;;13.93;;
26191;SDS011;13935;55.672;37.764;2022-09-29T06:40:53;21.70;;;13.98;;
26191;SDS011;13935;55.672;37.764;2022-09-29T06:41:56;29.02;;;15.50;;
26191;SDS011;13935;55.672;37.764;2022-09-29T06:42:58;27.73;;;17.38;;
26191;SDS011;13935;55.672;37.764;2022-09-29T06:44:01;26.55;;;17.00;;
26191;SDS011;13935;55.672;37.764;2022-09-29T06:45:05;31.15;;;17.00;;
26191;SDS011;13935;55.672;37.764;2022-09-29T06:46:07;29.27;;;17.77;;
26191;SDS011;13935;55.672;37.764;2022-09-29T06:47:10;28.95;;;19.08;;
26191;SDS011;13935;55.672;37.764;2022-09-29T06:48:13;31.70;;;19.95;;
26191;SDS011;13935;55.672;37.764;2022-09-29T06:49:19;31.77;;;18.88;;
26191;SDS011;13935;55.672;37.764;2022-09-29T06:50:23;34.35;;;18.33;;
26191;SDS011;13935;55.672;37.764;2022-09-29T06:51:26;34.40;;;18.83;;
26191;SDS011;13935;55.672;37.764;2022-09-29T06:52:41;28.85;;;17.33;;
26191;SDS011;13935;55.672;37.764;2022-09-29T06:54:00;31.70;;;17.33;;
26191;SDS011;13935;55.672;37.764;2022-09-29T06:55:12;33.08;;;18.42;;
26191;SDS011;13935;55.672;37.764;2022-09-29T06:56:16;30.77;;;17.88;;
26191;SDS011;13935;55.672;37.764;2022-09-29T06:57:21;31.23;;;18.23;;
26191;SDS011;13935;55.672;37.764;2022-09-29T06:58:27;30.83;;;16.95;;
26191;SDS011;13935;55.672;37.764;2022-09-29T06:59:33;35.50;;;17.85;;
26191;SDS011;13935;55.672;37.764;2022-09-29T07:00:38;29.88;;;18.35;;